Time;durP1;ratioP1;P1;durP2;ratioP2;P2;SDS_P1;SDS_P2;PMS_P1;PMS_P2;Temp;Humidity;BMP_temperature;BMP_pressure;BME280_temperature;BME280_humidity;BME280_pressure;Samples;Min_cycle;Max_cycle;Signal;HPM_P1;HPM_P2
2023/09/11 00:01:20;;;;;;;7.28;4.75;;;22.60;99.90;;;23.22;100.00;100867.59;5204857;28;20069;-55
2023/09/11 00:03:52;;;;;;;7.20;5.07;;;22.60;99.90;;;23.21;100.00;100860.50;5204440;28;20060;-55
2023/09/11 00:06:25;;;;;;;7.13;5.03;;;22.60;99.90;;;23.18;100.00;100861.44;5204722;28;20041;-54
2023/09/11 00:09:00;;;;;;;6.35;4.75;;;22.60;99.90;;;23.16;100.00;100857.06;5201202;28;20045;-54
2023/09/11 00:11:35;;;;;;;7.03;4.35;;;22.60;99.90;;;23.14;100.00;100853.53;5193594;28;20418;-56
2023/09/11 00:14:08;;;;;;;7.03;4.57;;;22.50;99.90;;;23.11;100.00;100857.13;5201797;28;20506;-55
2023/09/11 00:16:42;;;;;;;7.25;4.82;;;22.50;99.90;;;23.08;100.00;100848.31;5204737;28;20048;-55
2023/09/11 00:19:14;;;;;;;6.38;5.20;;;22.50;99.90;;;23.04;100.00;100847.50;5202605;28;20154;-55
2023/09/11 00:21:46;;;;;;;8.32;5.30;;;22.40;99.90;;;23.01;100.00;100847.53;5204262;28;20115;-55
2023/09/11 00:24:19;;;;;;;6.78;4.95;;;22.40;99.90;;;22.97;100.00;100844.06;5204146;28;20585;-54
2023/09/11 00:26:55;;;;;;;7.45;4.95;;;22.40;99.90;;;22.94;100.00;100841.44;5200627;28;20038;-55
2023/09/11 00:29:28;;;;;;;6.35;4.78;;;22.30;99.90;;;22.93;100.00;100845.00;5220471;28;20077;-54
2023/09/11 00:32:02;;;;;;;6.40;4.82;;;22.30;99.90;;;22.91;100.00;100841.50;5200051;28;20042;-55
2023/09/11 00:34:34;;;;;;;6.72;4.97;;;22.30;99.90;;;22.87;100.00;100837.09;5200576;28;20148;-55
2023/09/11 00:37:07;;;;;;;6.50;4.95;;;22.30;99.90;;;22.84;100.00;100845.13;5214978;28;20530;-54
2023/09/11 00:39:39;;;;;;;6.47;4.80;;;22.20;99.90;;;22.82;100.00;100840.69;5200588;28;20404;-54
2023/09/11 00:42:11;;;;;;;7.78;4.93;;;22.20;99.90;;;22.77;100.00;100840.78;5217995;28;20041;-54
2023/09/11 00:44:44;;;;;;;7.00;5.35;;;22.20;99.90;;;22.76;100.00;100841.69;5200325;28;20136;-55
2023/09/11 00:47:18;;;;;;;6.53;4.50;;;22.20;99.90;;;22.73;100.00;100831.97;5218728;28;20560;-54
2023/09/11 00:49:55;;;;;;;7.57;5.40;;;22.10;99.90;;;22.71;100.00;100843.53;5203991;28;20049;-55
2023/09/11 00:52:28;;;;;;;6.93;5.03;;;22.10;99.90;;;22.68;100.00;100833.81;5203361;28;20076;-54
2023/09/11 00:55:01;;;;;;;7.43;5.15;;;22.10;99.90;;;22.67;100.00;100839.16;5199792;28;20144;-55
2023/09/11 00:57:34;;;;;;;7.00;4.88;;;22.10;99.90;;;22.65;100.00;100833.88;5192680;28;20037;-55
2023/09/11 01:00:09;;;;;;;8.05;4.90;;;22.10;99.90;;;22.61;100.00;100828.59;5199820;28;20096;-54
2023/09/11 01:02:43;;;;;;;7.78;5.45;;;22.00;99.90;;;22.57;100.00;100826.91;5197190;28;20077;-55
2023/09/11 01:05:16;;;;;;;7.38;5.43;;;22.00;99.90;;;22.56;100.00;100822.47;5200826;28;20152;-55
2023/09/11 01:07:49;;;;;;;7.95;5.60;;;22.00;99.90;;;22.56;100.00;100822.47;5198990;28;20053;-55
2023/09/11 01:10:21;;;;;;;9.60;6.57;;;22.00;99.90;;;22.53;100.00;100818.09;5217936;28;20056;-54
2023/09/11 01:12:54;;;;;;;9.85;6.28;;;22.00;99.90;;;22.51;100.00;100811.06;5202887;28;20045;-56
2023/09/11 01:15:34;;;;;;;7.60;5.90;;;22.00;99.90;;;22.51;100.00;100816.38;5201681;28;20423;-55
2023/09/11 01:18:24;;;;;;;7.88;5.50;;;22.00;99.90;;;22.50;100.00;100811.97;5199092;28;20610;-54
2023/09/11 01:21:56;;;;;;;8.80;5.70;;;22.00;99.90;;;22.46;100.00;100813.78;5202666;28;20095;-54
2023/09/11 01:25:22;;;;;;;8.25;5.82;;;21.90;99.90;;;22.42;100.00;100807.59;5187995;28;20038;-55
2023/09/11 01:28:41;;;;;;;9.02;6.20;;;21.90;99.90;;;22.41;100.00;100807.63;5186098;28;20502;-54
2023/09/11 01:31:14;;;;;;;;;;;21.90;99.90;;;22.41;100.00;100808.50;5180440;28;20046;-54
2023/09/11 01:33:54;;;;;;;9.43;6.35;;;21.80;99.90;;;22.35;100.00;100803.28;5204059;28;19921;-54
2023/09/11 01:36:26;;;;;;;8.48;5.82;;;21.80;99.90;;;22.33;100.00;100806.88;5203173;28;20033;-54
2023/09/11 01:39:00;;;;;;;10.63;5.60;;;21.80;99.90;;;22.32;100.00;100803.34;5202886;28;20103;-54
2023/09/11 01:41:36;;;;;;;10.10;5.85;;;21.80;99.90;;;22.32;100.00;100803.34;5202790;28;20041;-55
2023/09/11 01:44:18;;;;;;;9.48;5.53;;;21.80;99.90;;;22.32;100.00;100808.66;5199162;28;20042;-56
2023/09/11 01:46:54;;;;;;;7.40;5.40;;;21.80;99.90;;;22.30;100.00;100804.25;5203179;28;20568;-54
2023/09/11 01:49:28;;;;;;;8.23;4.97;;;21.80;99.90;;;22.31;100.00;100800.72;5201670;28;20454;-55
2023/09/11 01:52:02;;;;;;;7.10;5.03;;;21.80;99.90;;;22.28;100.00;100806.91;5198813;28;20053;-55
2023/09/11 01:54:36;;;;;;;8.90;5.47;;;21.80;99.90;;;22.27;100.00;100809.59;5215770;28;20045;-55
2023/09/11 01:57:09;;;;;;;6.22;4.53;;;21.70;99.90;;;22.22;100.00;100807.00;5199047;28;20045;-56
2023/09/11 01:59:41;;;;;;;6.90;4.60;;;21.70;99.90;;;22.20;100.00;100806.16;5202606;28;20136;-55
2023/09/11 02:02:15;;;;;;;7.55;4.70;;;21.60;99.90;;;22.17;100.00;100808.84;5202123;28;20123;-54
2023/09/11 02:04:48;;;;;;;5.88;4.50;;;21.60;99.90;;;22.13;100.00;100808.00;5198507;28;20069;-54
2023/09/11 02:07:20;;;;;;;7.70;4.72;;;21.60;99.90;;;22.10;100.00;100801.84;5216910;28;20052;-55
2023/09/11 02:09:52;;;;;;;9.05;5.72;;;21.60;99.90;;;22.04;100.00;100799.22;5202197;28;20507;-55
2023/09/11 02:12:25;;;;;;;7.43;5.72;;;21.50;99.90;;;22.02;100.00;100809.00;5200834;28;20425;-54
2023/09/11 02:14:57;;;;;;;7.22;4.90;;;21.50;99.90;;;22.01;100.00;100813.44;5202113;28;20048;-55
2023/09/11 02:17:31;;;;;;;8.40;4.88;;;21.50;99.90;;;21.98;100.00;100809.94;5202119;28;20049;-55
2023/09/11 02:20:04;;;;;;;7.57;4.72;;;21.50;99.90;;;21.94;100.00;100804.66;5203748;28;20056;-56
2023/09/11 02:22:37;;;;;;;7.53;5.30;;;21.40;99.90;;;21.91;100.00;100802.06;5218331;28;20042;-54
2023/09/11 02:25:10;;;;;;;6.82;4.93;;;21.40;99.90;;;21.88;100.00;100799.41;5193846;28;20108;-55
2023/09/11 02:27:42;;;;;;;7.45;5.05;;;21.40;99.90;;;21.89;100.00;100797.63;5189819;28;20050;-54
2023/09/11 02:30:15;;;;;;;8.18;4.88;;;21.40;99.90;;;21.85;100.00;100807.44;5198551;28;20049;-55
2023/09/11 02:32:48;;;;;;;9.00;5.05;;;21.30;99.90;;;21.85;100.00;100802.13;5189691;28;20038;-55
2023/09/11 02:35:21;;;;;;;7.53;4.93;;;21.30;99.90;;;21.81;100.00;100808.34;5216135;28;20057;-55
2023/09/11 02:37:56;;;;;;;6.07;4.75;;;21.30;99.90;;;21.79;100.00;100806.63;5202100;28;20049;-56
2023/09/11 02:40:29;;;;;;;6.93;4.65;;;21.30;99.90;;;21.77;100.00;100808.38;5201814;28;20522;-54
2023/09/11 02:43:01;;;;;;;6.68;4.50;;;21.30;99.90;;;21.74;100.00;100808.44;5197187;28;20050;-53
2023/09/11 02:45:34;;;;;;;6.65;4.75;;;21.20;99.90;;;21.70;100.00;100802.28;5217612;28;20049;-55
2023/09/11 02:48:08;;;;;;;7.25;4.40;;;21.20;99.90;;;21.67;100.00;100797.00;5198262;28;20511;-54
2023/09/11 02:50:40;;;;;;;7.10;4.95;;;21.20;99.90;;;21.65;100.00;100801.47;5194090;28;20045;-55
2023/09/11 02:53:16;;;;;;;7.65;4.85;;;21.10;99.90;;;21.62;100.00;100802.34;5197689;28;20581;-55
2023/09/11 02:55:48;;;;;;;5.95;4.38;;;21.10;99.90;;;21.59;100.00;100794.44;5197896;28;20046;-55
2023/09/11 02:58:21;;;;;;;6.13;4.53;;;21.10;99.90;;;21.57;100.00;100790.91;5215194;28;20067;-55
2023/09/11 03:00:53;;;;;;;5.85;4.30;;;21.00;99.90;;;21.55;100.00;100789.19;5197543;28;20060;-55
2023/09/11 03:03:27;;;;;;;7.15;4.60;;;21.00;99.90;;;21.52;100.00;100791.88;5215459;28;20041;-55
2023/09/11 03:06:01;;;;;;;6.68;4.53;;;21.00;99.90;;;21.48;100.00;100791.00;5197656;28;20145;-54
2023/09/11 03:08:34;;;;;;;6.63;4.90;;;21.00;99.90;;;21.46;100.00;100791.94;5216600;28;20052;-55
2023/09/11 03:11:09;;;;;;;6.90;4.72;;;20.90;99.90;;;21.45;100.00;100792.81;5201467;28;20144;-54
2023/09/11 03:13:43;;;;;;;7.60;4.45;;;20.90;99.90;;;21.40;100.00;100787.56;5201423;28;20770;-54
2023/09/11 03:16:17;;;;;;;5.20;3.92;;;20.90;99.90;;;21.38;100.00;100779.59;5201151;28;20049;-55
2023/09/11 03:18:57;;;;;;;7.28;4.63;;;20.90;99.90;;;21.36;100.00;100789.34;5201346;28;20574;-54
2023/09/11 03:21:30;;;;;;;6.80;4.75;;;20.80;99.90;;;21.34;100.00;100790.28;5200994;28;20111;-55
2023/09/11 03:24:03;;;;;;;6.70;4.53;;;20.80;99.90;;;21.31;100.00;100787.63;5205909;28;20077;-55
2023/09/11 03:26:36;;;;;;;6.55;4.72;;;20.80;99.90;;;21.28;100.00;100782.34;5207370;28;20045;-54
2023/09/11 03:29:09;;;;;;;6.63;4.40;;;20.80;99.90;;;21.22;100.00;100780.63;5207896;28;20046;-55
2023/09/11 03:31:41;;;;;;;6.60;4.40;;;20.80;99.90;;;21.17;100.00;100777.13;5207674;28;20072;-54
2023/09/11 03:34:15;;;;;;;7.57;3.78;;;20.70;99.90;;;21.13;100.00;100784.25;5207659;28;20045;-52
2023/09/11 03:36:49;;;;;;;7.07;4.55;;;20.60;99.90;;;21.08;100.00;100780.75;5197068;28;20454;-52
2023/09/11 03:39:21;;;;;;;7.80;4.32;;;20.60;99.90;;;21.07;100.00;100788.72;5221727;28;20041;-51
2023/09/11 03:41:53;;;;;;;6.22;3.83;;;20.60;99.90;;;21.04;100.00;100783.44;5193921;28;20411;-51
2023/09/11 03:44:26;;;;;;;6.00;4.10;;;20.50;99.90;;;21.02;100.00;100780.78;5222652;28;20041;-51
2023/09/11 03:46:58;;;;;;;5.90;4.10;;;20.50;99.90;;;20.99;100.00;100774.63;5204182;28;20050;-54
2023/09/11 03:49:32;;;;;;;5.65;4.30;;;20.50;99.90;;;20.97;100.00;100776.44;5220217;28;20091;-52
2023/09/11 03:52:05;;;;;;;5.80;4.47;;;20.50;99.90;;;20.93;100.00;100777.31;5201979;28;20049;-55
2023/09/11 03:54:38;;;;;;;5.78;4.20;;;20.40;99.90;;;20.92;100.00;100783.53;5203923;28;20526;-52
2023/09/11 03:57:10;;;;;;;7.95;4.53;;;20.40;99.90;;;20.90;100.00;100777.38;5199444;28;20481;-52
2023/09/11 03:59:43;;;;;;;7.32;4.60;;;20.40;99.90;;;20.87;100.00;100770.34;5220536;28;20068;-52
2023/09/11 04:02:15;;;;;;;6.38;4.00;;;20.40;99.90;;;20.84;100.00;100773.88;5194996;28;20045;-55
2023/09/11 04:04:49;;;;;;;6.65;4.63;;;20.30;99.90;;;20.81;100.00;100767.72;5187944;28;20540;-52
2023/09/11 04:07:21;;;;;;;6.90;3.78;;;20.30;99.90;;;20.77;100.00;100768.63;5201421;28;20050;-54
2023/09/11 04:09:54;;;;;;;6.28;4.38;;;20.30;99.90;;;20.74;100.00;100766.91;5204091;28;20056;-52
2023/09/11 04:12:26;;;;;;;6.68;4.25;;;20.30;99.90;;;20.70;100.00;100757.19;5220721;28;20041;-53
2023/09/11 04:14:58;;;;;;;6.90;4.55;;;20.20;99.90;;;20.67;100.00;100762.53;5204066;28;20038;-52
2023/09/11 04:17:31;;;;;;;5.57;4.20;;;20.20;99.90;;;20.66;100.00;100760.75;5212733;28;20047;-53
2023/09/11 04:20:06;;;;;;;5.88;4.07;;;20.20;99.90;;;20.62;100.00;100764.34;5198110;28;20033;-53
2023/09/11 04:22:39;;;;;;;7.13;3.85;;;20.10;99.90;;;20.59;100.00;100753.75;5195081;28;20415;-53
2023/09/11 04:25:11;;;;;;;5.97;4.00;;;20.10;99.90;;;20.57;100.00;100760.81;5187461;28;20042;-53
2023/09/11 04:27:44;;;;;;;6.78;4.30;;;20.10;99.90;;;20.54;100.00;100759.09;5206638;28;20052;-53
2023/09/11 04:30:17;;;;;;;6.75;4.13;;;20.10;99.90;;;20.53;100.00;100756.44;5199666;28;20038;-54
2023/09/11 04:32:50;;;;;;;5.60;4.40;;;20.00;99.90;;;20.50;100.00;100756.47;5203387;28;20053;-53
2023/09/11 04:35:24;;;;;;;6.18;3.80;;;20.00;99.90;;;20.50;100.00;100760.00;5189714;28;20377;-55
2023/09/11 04:37:58;;;;;;;7.20;4.13;;;20.00;99.90;;;20.48;100.00;100752.97;5200382;28;20042;-54
2023/09/11 04:40:31;;;;;;;6.13;4.20;;;20.00;99.90;;;20.49;100.00;100754.72;5210307;28;20048;-51
2023/09/11 04:43:04;;;;;;;6.63;4.05;;;20.00;99.90;;;20.47;100.00;100749.41;5200024;28;20042;-54
2023/09/11 04:45:37;;;;;;;7.05;3.95;;;20.00;99.90;;;20.48;100.00;100750.31;5218965;28;20041;-53
2023/09/11 04:48:09;;;;;;;7.60;4.43;;;20.00;99.90;;;20.48;100.00;100751.19;5204120;28;20073;-53
2023/09/11 04:50:43;;;;;;;6.47;4.22;;;20.00;99.90;;;20.50;100.00;100752.03;5203716;28;20037;-52
2023/09/11 04:53:16;;;;;;;5.97;4.10;;;20.00;99.90;;;20.50;100.00;100746.75;5195940;28;20054;-53
2023/09/11 04:55:49;;;;;;;6.57;4.20;;;20.00;99.90;;;20.53;100.00;100753.78;5203565;28;20140;-53
2023/09/11 04:58:22;;;;;;;7.85;4.60;;;20.00;99.90;;;20.53;100.00;100753.78;5219903;28;20060;-52
2023/09/11 05:00:54;;;;;;;9.25;5.15;;;20.00;99.90;;;20.56;100.00;100753.78;5191353;28;20037;-52
2023/09/11 05:03:27;;;;;;;6.55;4.55;;;20.10;99.90;;;20.59;100.00;100753.75;5191322;28;20041;-53
2023/09/11 05:06:01;;;;;;;8.32;4.65;;;20.10;99.90;;;20.61;100.00;100759.06;5193150;28;20038;-53
2023/09/11 05:08:33;;;;;;;7.25;4.40;;;20.10;99.90;;;20.62;100.00;100755.50;5218079;28;20495;-53
2023/09/11 05:11:06;;;;;;;6.60;4.35;;;20.10;99.90;;;20.62;100.00;100764.34;5203918;28;20075;-53
2023/09/11 05:13:39;;;;;;;5.95;4.13;;;20.20;99.90;;;20.64;100.00;100766.97;5203122;28;20056;-53
2023/09/11 05:16:12;;;;;;;7.30;4.28;;;20.10;99.90;;;20.65;100.00;100759.00;5199735;28;20034;-51
2023/09/11 05:18:44;;;;;;;6.68;4.53;;;20.20;99.90;;;20.69;100.00;100760.75;5216143;28;20065;-55
2023/09/11 05:21:18;;;;;;;8.07;5.00;;;20.20;99.90;;;20.69;100.00;100759.88;5195134;28;20038;-52
2023/09/11 05:23:50;;;;;;;7.30;4.25;;;20.20;99.90;;;20.71;100.00;100758.97;5207306;28;20037;-53
2023/09/11 05:26:26;;;;;;;7.97;4.50;;;20.20;99.90;;;20.72;100.00;100754.53;5200710;28;20065;-53
2023/09/11 05:28:58;;;;;;;6.97;4.40;;;20.30;99.90;;;20.75;100.00;100758.06;5195756;28;20052;-52
2023/09/11 05:31:30;;;;;;;6.15;4.35;;;20.30;99.90;;;20.76;100.00;100765.09;5203385;28;20045;-53
2023/09/11 05:34:03;;;;;;;8.27;4.63;;;20.30;99.90;;;20.80;100.00;100760.66;5191114;28;20503;-52
2023/09/11 05:36:40;;;;;;;6.95;4.50;;;20.30;99.90;;;20.85;100.00;100767.66;5207836;28;20045;-52
2023/09/11 05:39:12;;;;;;;6.30;4.30;;;20.30;99.90;;;20.90;100.00;100774.72;5193869;28;20049;-52
2023/09/11 05:41:45;;;;;;;8.45;5.30;;;20.40;99.90;;;20.95;100.00;100759.66;5214804;28;20434;-53
2023/09/11 05:44:17;;;;;;;7.47;4.53;;;20.40;99.90;;;20.99;100.00;100766.69;5194447;28;20042;-53
2023/09/11 05:46:50;;;;;;;6.13;4.25;;;20.50;99.90;;;21.04;100.00;100778.13;5190958;28;20046;-52
2023/09/11 05:49:22;;;;;;;6.82;4.10;;;20.60;99.90;;;21.08;100.00;100779.88;5190991;28;20473;-51
2023/09/11 05:51:56;;;;;;;6.85;4.38;;;20.60;99.90;;;21.14;100.00;100774.53;5203256;28;20053;-52
2023/09/11 05:54:29;;;;;;;5.88;4.03;;;20.70;99.90;;;21.20;100.00;100779.78;5194652;28;20065;-53
2023/09/11 05:57:02;;;;;;;8.70;4.45;;;20.70;99.90;;;21.25;100.00;100769.97;5197548;28;20048;-55
2023/09/11 05:59:34;;;;;;;9.27;5.40;;;20.80;99.90;;;21.30;100.00;100775.28;5197671;28;20127;-52
2023/09/11 06:02:07;;;;;;;7.85;4.90;;;20.80;99.90;;;21.32;100.00;100777.03;5188365;28;20038;-51
2023/09/11 06:04:39;;;;;;;7.20;4.80;;;20.90;99.90;;;21.42;100.00;100776.94;5200713;28;20049;-52
2023/09/11 06:07:13;;;;;;;8.02;4.72;;;21.00;99.90;;;21.51;100.00;100772.41;5202827;28;20055;-53
2023/09/11 06:09:45;;;;;;;6.57;3.92;;;21.00;99.90;;;21.61;100.00;100779.38;5201532;28;20202;-53
2023/09/11 06:12:21;;;;;;;6.65;4.18;;;21.10;99.90;;;21.71;100.00;100777.50;5190081;28;20038;-55
2023/09/11 06:14:53;;;;;;;8.57;4.93;;;21.20;99.90;;;21.99;100.00;100777.19;5202438;28;20494;-52
2023/09/11 06:17:26;;;;;;;10.65;4.60;;;21.40;99.90;;;23.12;100.00;100787.09;5194280;28;20606;-52
2023/09/11 06:19:58;;;;;;;6.93;4.40;;;22.10;99.90;;;24.66;100.00;100782.31;5194774;28;20423;-53
2023/09/11 06:22:32;;;;;;;6.95;4.75;;;23.10;99.90;;;26.12;100.00;100785.59;5185162;28;20056;-53
2023/09/11 06:25:05;;;;;;;9.18;4.20;;;24.30;99.90;;;27.46;99.65;100788.47;5182310;28;20062;-53
2023/09/11 06:27:38;;;;;;;8.20;4.40;;;25.50;99.90;;;28.58;93.53;100790.56;5200377;28;20163;-52
2023/09/11 06:30:11;;;;;;;9.13;4.45;;;26.60;99.90;;;29.55;88.62;100790.16;5196468;28;20045;-52
2023/09/11 06:32:47;;;;;;;10.68;4.15;;;27.60;99.90;;;30.33;84.55;100790.16;5181889;28;20050;-53
2023/09/11 06:35:19;;;;;;;10.93;4.00;;;28.40;98.60;;;31.04;81.06;100793.00;5193447;28;20038;-55
2023/09/11 06:37:53;;;;;;;9.07;4.57;;;29.10;96.80;;;31.58;78.73;100797.41;5214108;28;20050;-52
2023/09/11 06:40:28;;;;;;;8.77;3.92;;;29.70;95.20;;;32.12;76.43;100795.41;5190035;28;20038;-53
2023/09/11 06:43:00;;;;;;;11.30;4.47;;;30.30;93.70;;;32.57;74.79;100801.91;5210687;28;20049;-53
2023/09/11 06:45:34;;;;;;;7.90;3.70;;;30.80;92.40;;;33.03;73.68;100809.22;5193271;28;20388;-52
2023/09/11 06:48:07;;;;;;;9.20;4.00;;;31.20;91.40;;;33.41;71.94;100804.28;5183376;28;20049;-53
2023/09/11 06:50:43;;;;;;;13.07;4.10;;;31.60;90.10;;;33.60;70.32;100812.16;5208226;28;20049;-53
2023/09/11 06:53:17;;;;;;;10.23;4.43;;;31.90;87.40;;;33.71;69.63;100812.34;5189703;28;20478;-51
2023/09/11 06:55:49;;;;;;;;;;;32.00;85.60;;;32.81;71.39;100812.28;5216501;28;20068;-50
2023/09/11 06:58:21;;;;;;;8.88;3.95;;;31.60;85.40;;;31.74;74.16;100804.66;5209826;28;19921;-51
2023/09/11 07:00:54;;;;;;;9.00;4.25;;;30.90;85.80;;;30.71;76.94;100800.91;5197647;28;20037;-54
2023/09/11 07:03:26;;;;;;;8.80;4.28;;;30.10;87.30;;;29.91;79.58;100801.03;5193010;28;20515;-52
2023/09/11 07:05:58;;;;;;;9.15;3.95;;;29.40;89.30;;;29.33;81.82;100801.75;5201454;28;20037;-50
2023/09/11 07:08:32;;;;;;;7.80;4.43;;;28.80;90.50;;;28.94;83.51;100804.31;5201315;28;20532;-51
2023/09/11 07:11:05;;;;;;;8.90;4.18;;;28.40;91.30;;;28.52;84.95;100790.81;5196843;28;20065;-51
2023/09/11 07:13:38;;;;;;;8.52;4.72;;;28.00;91.80;;;28.23;85.57;100797.25;5182011;28;20056;-52
2023/09/11 07:16:10;;;;;;;7.80;4.13;;;27.70;92.20;;;28.03;87.14;100798.00;5195790;28;20050;-51
2023/09/11 07:18:45;;;;;;;7.82;4.18;;;27.40;92.80;;;28.01;88.12;100783.81;5190950;28;20610;-51
2023/09/11 07:21:18;;;;;;;7.82;4.15;;;27.30;93.40;;;27.99;87.90;100785.66;5202980;28;20113;-51
2023/09/11 07:23:51;;;;;;;10.98;4.10;;;27.30;93.50;;;27.98;88.00;100789.28;5191222;28;20045;-51
2023/09/11 07:26:27;;;;;;;10.77;4.22;;;27.20;93.60;;;27.97;87.98;100776.78;5197288;28;20563;-52
2023/09/11 07:29:02;;;;;;;9.93;4.15;;;27.20;93.70;;;28.07;87.87;100784.44;5201099;28;20498;-52
2023/09/11 07:31:36;;;;;;;11.38;4.47;;;27.30;93.80;;;28.21;87.99;100775.88;5192974;28;20045;-51
2023/09/11 07:34:08;;;;;;;10.20;4.60;;;27.30;93.90;;;28.30;87.88;100780.91;5201021;28;20041;-51
2023/09/11 07:36:41;;;;;;;7.47;4.13;;;27.50;93.90;;;28.31;87.15;100771.09;5193284;28;20348;-51
2023/09/11 07:39:15;;;;;;;8.20;4.15;;;27.50;93.70;;;28.39;87.41;100771.66;5195375;28;20052;-52
2023/09/11 07:41:47;;;;;;;9.10;3.97;;;27.60;93.70;;;28.47;87.39;100765.97;5196719;28;20053;-51
2023/09/11 07:44:20;;;;;;;9.50;4.60;;;27.60;93.70;;;28.54;87.41;100770.16;5187140;28;20057;-50
2023/09/11 07:46:55;;;;;;;9.13;4.10;;;27.70;93.80;;;28.62;86.95;100773.41;5199972;28;20457;-51
2023/09/11 07:49:27;;;;;;;8.48;4.18;;;27.70;93.70;;;28.74;87.29;100770.22;5189121;28;20057;-51
2023/09/11 07:52:00;;;;;;;11.20;4.07;;;27.80;93.80;;;28.95;87.67;100778.34;5216610;28;20124;-52
2023/09/11 07:54:34;;;;;;;8.25;4.05;;;27.90;94.00;;;29.13;86.87;100765.03;5196726;28;20038;-54
2023/09/11 07:57:06;;;;;;;7.35;4.25;;;28.10;93.90;;;29.30;86.06;100769.69;5196660;28;20041;-53
2023/09/11 07:59:38;;;;;;;9.40;4.35;;;28.20;93.60;;;29.42;84.82;100770.97;5193651;28;20057;-52
2023/09/11 08:02:11;;;;;;;9.40;4.72;;;28.30;93.20;;;29.58;84.18;100776.56;5181204;28;20104;-51
2023/09/11 08:04:43;;;;;;;11.73;4.50;;;28.40;92.90;;;29.78;82.94;100776.53;5198149;28;20050;-51
2023/09/11 08:07:15;;;;;;;7.93;4.07;;;28.60;92.50;;;29.90;81.67;100775.97;5201064;28;20095;-52
2023/09/11 08:09:49;;;;;;;8.85;4.50;;;28.70;92.00;;;30.10;81.89;100777.78;5201418;28;20060;-51
2023/09/11 08:12:21;;;;;;;7.70;3.88;;;28.80;92.10;;;30.41;80.58;100785.28;5200573;28;20049;-52
2023/09/11 08:14:54;;;;;;;6.35;3.70;;;29.00;91.80;;;30.60;79.84;100777.19;5219801;28;20510;-50
2023/09/11 08:17:27;;;;;;;7.20;4.13;;;29.10;91.50;;;30.92;79.11;100783.72;5201037;28;20038;-52
2023/09/11 08:20:00;;;;;;;8.13;4.03;;;29.20;91.30;;;31.39;77.43;100777.75;5203505;28;20092;-51
2023/09/11 08:22:35;;;;;;;7.35;3.83;;;29.50;90.80;;;31.98;75.57;100787.22;5204195;28;20060;-51
2023/09/11 08:25:10;;;;;;;7.18;4.18;;;29.80;90.40;;;32.48;73.64;100788.97;5192502;28;20121;-53
2023/09/11 08:27:42;;;;;;;9.90;3.85;;;30.10;89.90;;;33.10;72.81;100786.31;5192291;28;20099;-52
2023/09/11 08:30:16;;;;;;;6.95;3.85;;;30.40;89.60;;;33.96;69.70;100784.69;5193850;28;20042;-52
2023/09/11 08:32:51;;;;;;;7.88;3.90;;;30.90;87.70;;;34.77;67.07;100777.63;5218505;28;20049;-54
2023/09/11 08:35:24;;;;;;;10.07;3.80;;;31.60;85.20;;;35.45;65.06;100776.66;5201138;28;20038;-53
2023/09/11 08:37:56;;;;;;;7.20;4.00;;;32.30;83.50;;;35.75;63.64;100781.78;5207756;28;20046;-52
2023/09/11 08:40:31;;;;;;;8.50;3.63;;;32.70;80.90;;;36.08;63.73;100777.69;5195194;28;20062;-51
2023/09/11 08:43:04;;;;;;;7.10;3.63;;;33.10;79.80;;;36.53;62.90;100778.91;5211841;28;20042;-53
2023/09/11 08:45:38;;;;;;;9.18;3.92;;;33.60;79.10;;;37.00;61.02;100782.63;5200146;28;20452;-52
2023/09/11 08:48:13;;;;;;;8.02;3.65;;;34.00;76.60;;;37.31;59.81;100783.88;5188199;28;20053;-52
2023/09/11 08:50:54;;;;;;;7.05;3.30;;;34.40;75.50;;;37.35;58.66;100777.22;5200859;28;20046;-51
2023/09/11 08:53:28;;;;;;;7.75;3.60;;;34.60;73.50;;;37.40;58.33;100780.44;5199593;28;20542;-52
2023/09/11 08:56:02;;;;;;;6.80;3.42;;;34.80;72.40;;;37.35;58.23;100788.09;5202925;28;20041;-52
2023/09/11 08:58:44;;;;;;;9.13;3.90;;;34.80;71.60;;;37.20;58.11;100786.53;5203754;28;20391;-51
2023/09/11 09:01:17;;;;;;;7.70;3.88;;;34.80;70.90;;;36.99;58.38;100770.03;5204118;28;20442;-51
2023/09/11 09:03:51;;;;;;;8.50;3.72;;;34.80;70.70;;;36.64;58.49;100770.78;5203475;28;20402;-52
2023/09/11 09:06:24;;;;;;;6.93;3.80;;;34.70;70.50;;;36.29;59.21;100758.97;5203914;28;20041;-52
2023/09/11 09:08:59;;;;;;;9.13;3.92;;;34.50;70.40;;;35.74;60.04;100758.38;5195287;28;20047;-52
2023/09/11 09:11:34;;;;;;;7.72;3.78;;;34.30;70.60;;;35.15;61.13;100757.06;5199643;28;20042;-51
2023/09/11 09:14:08;;;;;;;6.30;3.70;;;33.90;70.90;;;34.53;62.22;100757.59;5219522;28;20052;-51
2023/09/11 09:16:44;;;;;;;7.80;4.05;;;33.40;71.40;;;33.93;63.91;100752.44;5199561;28;20088;-51
2023/09/11 09:19:17;;;;;;;7.45;3.63;;;33.00;72.30;;;33.58;65.73;100752.81;5203274;28;20127;-53
2023/09/11 09:22:09;;;;;;;11.95;5.45;;;32.70;73.50;;;33.38;66.24;100763.91;5200599;28;20065;-51
2023/09/11 09:24:51;;;;;;;8.98;4.10;;;32.40;74.30;;;33.28;66.57;100750.09;5203578;28;20046;-53
2023/09/11 09:27:27;;;;;;;8.48;3.97;;;32.30;74.70;;;33.17;66.84;100748.03;5189678;28;20034;-51
2023/09/11 09:29:59;;;;;;;9.20;4.30;;;32.10;74.90;;;33.02;66.68;100746.25;5203593;28;20056;-51
2023/09/11 09:32:34;;;;;;;8.25;3.85;;;32.00;74.80;;;33.01;67.48;100747.22;5196140;28;20042;-51
2023/09/11 09:35:08;;;;;;;8.02;4.03;;;32.00;75.50;;;33.05;67.60;100737.97;5202535;28;20037;-50
2023/09/11 09:37:51;;;;;;;9.10;4.00;;;31.90;75.70;;;32.96;67.19;100738.53;5203474;28;20459;-54
2023/09/11 09:40:34;;;;;;;8.30;3.53;;;31.90;75.30;;;32.82;68.27;100735.75;5203336;28;20468;-51
2023/09/11 09:43:16;;;;;;;9.82;4.25;;;31.80;76.30;;;32.87;68.09;100737.25;5202660;28;20170;-51
2023/09/11 09:45:49;;;;;;;6.65;3.35;;;31.80;76.30;;;32.97;68.20;100728.59;5203310;28;20422;-52
2023/09/11 09:48:21;;;;;;;7.65;3.50;;;31.90;76.40;;;32.91;67.20;100724.44;5190826;28;20384;-50
2023/09/11 09:50:59;;;;;;;8.93;3.78;;;31.80;75.50;;;32.88;67.64;100717.38;5217227;28;20045;-50
2023/09/11 09:53:33;;;;;;;6.28;3.95;;;31.90;75.80;;;32.96;67.25;100716.94;5198935;28;20053;-51
2023/09/11 09:56:07;;;;;;;10.00;3.88;;;31.90;75.60;;;33.05;66.99;100710.09;5210771;28;20071;-50
2023/09/11 09:58:43;;;;;;;9.00;3.92;;;32.00;75.60;;;33.12;66.90;100720.44;5199091;28;20084;-50
2023/09/11 10:01:19;;;;;;;9.25;3.78;;;32.00;75.30;;;33.08;66.74;100715.34;5195643;28;20091;-51
2023/09/11 10:03:55;;;;;;;5.95;3.70;;;32.00;75.30;;;33.06;67.66;100712.72;5199509;28;20112;-50
2023/09/11 10:06:31;;;;;;;6.90;3.55;;;32.00;75.90;;;33.15;66.61;100711.28;5202892;28;20502;-49
2023/09/11 10:09:08;;;;;;;5.70;3.47;;;32.00;75.20;;;33.24;66.24;100709.84;5201346;28;20054;-51
2023/09/11 10:11:43;;;;;;;7.45;4.13;;;32.10;74.70;;;33.33;65.96;100714.72;5198627;28;20046;-50
2023/09/11 10:14:19;;;;;;;5.75;3.42;;;32.20;74.70;;;33.45;65.63;100703.16;5211049;28;20132;-50
2023/09/11 10:16:51;;;;;;;5.95;3.40;;;32.20;74.50;;;33.60;65.61;100702.22;5199773;28;20042;-50
2023/09/11 10:19:25;;;;;;;6.72;3.40;;;32.40;74.50;;;33.72;65.23;100701.44;5198368;28;20056;-49
2023/09/11 10:21:59;;;;;;;;;;;32.50;74.30;;;33.78;64.89;100702.00;5214610;28;20049;-49
2023/09/11 10:24:32;;;;;;;5.85;3.50;;;32.60;73.80;;;33.89;65.71;100696.78;5202662;28;19975;-50
2023/09/11 10:27:08;;;;;;;7.20;3.38;;;32.60;74.50;;;33.91;65.02;100698.47;5202348;28;20069;-50
2023/09/11 10:29:55;;;;;;;6.78;3.70;;;32.70;73.70;;;33.89;65.43;100692.25;5219261;28;20056;-50
2023/09/11 10:32:34;;;;;;;6.93;3.30;;;32.70;74.10;;;33.95;66.42;100691.03;5197135;28;20073;-49
2023/09/11 10:35:11;;;;;;;6.10;3.28;;;32.70;75.10;;;33.95;65.71;100685.63;5201028;28;20071;-52
2023/09/11 10:37:45;;;;;;;7.80;3.80;;;32.70;74.30;;;34.00;64.82;100688.91;5198587;28;20084;-50